sensor_id;sensor_type;location;lat;lon;timestamp;P1;durP1;ratioP1;P2;durP2;ratioP2
6878;SDS011;3478;51.462;7.338;2022-08-19T00:03:06;11.37;;;10.20;;
6878;SDS011;3478;51.462;7.338;2022-08-19T00:08:08;12.00;;;11.00;;
6878;SDS011;3478;51.462;7.338;2022-08-19T00:13:10;11.57;;;10.47;;
6878;SDS011;3478;51.462;7.338;2022-08-19T00:18:13;10.37;;;9.27;;
6878;SDS011;3478;51.462;7.338;2022-08-19T00:23:15;11.10;;;10.10;;
6878;SDS011;3478;51.462;7.338;2022-08-19T00:28:17;18.73;;;9.90;;
6878;SDS011;3478;51.462;7.338;2022-08-19T00:33:21;10.37;;;9.50;;
6878;SDS011;3478;51.462;7.338;2022-08-19T00:38:23;9.63;;;8.93;;
6878;SDS011;3478;51.462;7.338;2022-08-19T00:43:26;11.57;;;9.63;;
6878;SDS011;3478;51.462;7.338;2022-08-19T00:48:30;9.83;;;9.03;;
6878;SDS011;3478;51.462;7.338;2022-08-19T00:53:33;11.83;;;10.50;;
6878;SDS011;3478;51.462;7.338;2022-08-19T00:58:35;11.53;;;10.43;;
6878;SDS011;3478;51.462;7.338;2022-08-19T01:03:38;9.90;;;9.00;;
6878;SDS011;3478;51.462;7.338;2022-08-19T01:08:40;10.33;;;8.37;;
6878;SDS011;3478;51.462;7.338;2022-08-19T01:13:42;9.97;;;9.20;;
6878;SDS011;3478;51.462;7.338;2022-08-19T01:18:46;9.50;;;8.60;;
6878;SDS011;3478;51.462;7.338;2022-08-19T01:23:50;10.80;;;9.90;;
6878;SDS011;3478;51.462;7.338;2022-08-19T01:28:54;12.97;;;10.70;;
6878;SDS011;3478;51.462;7.338;2022-08-19T01:33:58;12.00;;;10.80;;
6878;SDS011;3478;51.462;7.338;2022-08-19T01:39:05;11.33;;;10.33;;
6878;SDS011;3478;51.462;7.338;2022-08-19T01:44:10;10.50;;;9.63;;
6878;SDS011;3478;51.462;7.338;2022-08-19T01:49:12;11.70;;;10.73;;
6878;SDS011;3478;51.462;7.338;2022-08-19T01:54:17;14.13;;;11.20;;
6878;SDS011;3478;51.462;7.338;2022-08-19T01:59:20;12.93;;;9.40;;
6878;SDS011;3478;51.462;7.338;2022-08-19T02:04:23;11.63;;;9.90;;
6878;SDS011;3478;51.462;7.338;2022-08-19T02:09:27;11.13;;;10.03;;
6878;SDS011;3478;51.462;7.338;2022-08-19T02:14:29;10.27;;;9.37;;
6878;SDS011;3478;51.462;7.338;2022-08-19T02:19:31;13.00;;;10.93;;
6878;SDS011;3478;51.462;7.338;2022-08-19T02:24:35;11.37;;;10.27;;
6878;SDS011;3478;51.462;7.338;2022-08-19T02:29:37;10.97;;;9.90;;
6878;SDS011;3478;51.462;7.338;2022-08-19T02:34:39;15.47;;;10.80;;
6878;SDS011;3478;51.462;7.338;2022-08-19T02:39:42;13.00;;;11.80;;
6878;SDS011;3478;51.462;7.338;2022-08-19T02:44:44;17.43;;;13.40;;
6878;SDS011;3478;51.462;7.338;2022-08-19T02:49:46;15.00;;;13.50;;
6878;SDS011;3478;51.462;7.338;2022-08-19T02:54:50;13.10;;;11.70;;
6878;SDS011;3478;51.462;7.338;2022-08-19T02:59:52;15.00;;;13.33;;
6878;SDS011;3478;51.462;7.338;2022-08-19T03:04:54;13.97;;;12.53;;
6878;SDS011;3478;51.462;7.338;2022-08-19T03:09:57;19.30;;;16.47;;
6878;SDS011;3478;51.462;7.338;2022-08-19T03:14:59;22.00;;;15.33;;
6878;SDS011;3478;51.462;7.338;2022-08-19T03:20:01;18.97;;;17.00;;
6878;SDS011;3478;51.462;7.338;2022-08-19T03:25:05;24.87;;;16.80;;
6878;SDS011;3478;51.462;7.338;2022-08-19T03:30:07;16.67;;;15.07;;
6878;SDS011;3478;51.462;7.338;2022-08-19T03:35:10;17.70;;;15.77;;
6878;SDS011;3478;51.462;7.338;2022-08-19T03:40:14;22.63;;;16.73;;
6878;SDS011;3478;51.462;7.338;2022-08-19T03:45:16;18.30;;;16.60;;
6878;SDS011;3478;51.462;7.338;2022-08-19T03:50:18;18.00;;;16.20;;
6878;SDS011;3478;51.462;7.338;2022-08-19T03:55:21;20.10;;;16.90;;
6878;SDS011;3478;51.462;7.338;2022-08-19T04:00:23;15.47;;;13.83;;
6878;SDS011;3478;51.462;7.338;2022-08-19T04:05:26;17.77;;;15.40;;
6878;SDS011;3478;51.462;7.338;2022-08-19T04:10:30;18.50;;;16.30;;
6878;SDS011;3478;51.462;7.338;2022-08-19T04:15:38;17.83;;;15.43;;
6878;SDS011;3478;51.462;7.338;2022-08-19T04:20:41;17.70;;;15.83;;
6878;SDS011;3478;51.462;7.338;2022-08-19T04:25:48;22.27;;;18.10;;
6878;SDS011;3478;51.462;7.338;2022-08-19T04:30:51;21.77;;;17.87;;
6878;SDS011;3478;51.462;7.338;2022-08-19T04:35:55;19.77;;;17.73;;
6878;SDS011;3478;51.462;7.338;2022-08-19T04:40:59;23.50;;;18.17;;
6878;SDS011;3478;51.462;7.338;2022-08-19T04:46:21;21.37;;;18.27;;
6878;SDS011;3478;51.462;7.338;2022-08-19T04:51:23;18.33;;;16.40;;
6878;SDS011;3478;51.462;7.338;2022-08-19T04:56:26;18.30;;;16.47;;
6878;SDS011;3478;51.462;7.338;2022-08-19T05:01:29;18.93;;;16.80;;
6878;SDS011;3478;51.462;7.338;2022-08-19T05:06:33;19.03;;;16.60;;
6878;SDS011;3478;51.462;7.338;2022-08-19T05:11:37;20.00;;;17.43;;
6878;SDS011;3478;51.462;7.338;2022-08-19T05:16:39;18.97;;;16.97;;
6878;SDS011;3478;51.462;7.338;2022-08-19T05:21:42;19.30;;;16.53;;
6878;SDS011;3478;51.462;7.338;2022-08-19T05:27:03;21.80;;;16.27;;
6878;SDS011;3478;51.462;7.338;2022-08-19T05:32:06;20.20;;;14.83;;
6878;SDS011;3478;51.462;7.338;2022-08-19T05:37:10;17.87;;;15.93;;
6878;SDS011;3478;51.462;7.338;2022-08-19T05:42:13;23.33;;;17.30;;
6878;SDS011;3478;51.462;7.338;2022-08-19T05:47:16;19.03;;;15.90;;
6878;SDS011;3478;51.462;7.338;2022-08-19T05:52:19;23.77;;;15.20;;
6878;SDS011;3478;51.462;7.338;2022-08-19T05:57:23;16.13;;;14.40;;
6878;SDS011;3478;51.462;7.338;2022-08-19T06:02:25;16.70;;;14.53;;
6878;SDS011;3478;51.462;7.338;2022-08-19T06:07:28;16.03;;;14.10;;
6878;SDS011;3478;51.462;7.338;2022-08-19T06:12:31;18.30;;;14.97;;
6878;SDS011;3478;51.462;7.338;2022-08-19T06:17:34;19.87;;;14.67;;
6878;SDS011;3478;51.462;7.338;2022-08-19T06:22:37;17.83;;;13.60;;
6878;SDS011;3478;51.462;7.338;2022-08-19T06:27:40;18.53;;;13.43;;
6878;SDS011;3478;51.462;7.338;2022-08-19T06:32:42;15.90;;;13.83;;
6878;SDS011;3478;51.462;7.338;2022-08-19T06:37:44;14.83;;;13.33;;
6878;SDS011;3478;51.462;7.338;2022-08-19T06:42:48;16.23;;;14.60;;
6878;SDS011;3478;51.462;7.338;2022-08-19T06:47:50;14.10;;;12.80;;
6878;SDS011;3478;51.462;7.338;2022-08-19T06:52:55;17.67;;;13.67;;
6878;SDS011;3478;51.462;7.338;2022-08-19T06:57:59;14.57;;;12.50;;
6878;SDS011;3478;51.462;7.338;2022-08-19T07:03:03;16.87;;;12.90;;
6878;SDS011;3478;51.462;7.338;2022-08-19T07:08:05;15.97;;;13.30;;
6878;SDS011;3478;51.462;7.338;2022-08-19T07:13:08;13.80;;;12.20;;
6878;SDS011;3478;51.462;7.338;2022-08-19T07:18:11;20.17;;;13.60;;
6878;SDS011;3478;51.462;7.338;2022-08-19T07:23:13;16.03;;;14.53;;
6878;SDS011;3478;51.462;7.338;2022-08-19T07:28:16;18.60;;;13.90;;
6878;SDS011;3478;51.462;7.338;2022-08-19T07:33:18;15.90;;;14.20;;
6878;SDS011;3478;51.462;7.338;2022-08-19T07:38:21;15.23;;;13.43;;
6878;SDS011;3478;51.462;7.338;2022-08-19T07:43:24;15.97;;;14.37;;
6878;SDS011;3478;51.462;7.338;2022-08-19T07:48:27;17.60;;;14.80;;
6878;SDS011;3478;51.462;7.338;2022-08-19T07:53:30;19.00;;;14.93;;
6878;SDS011;3478;51.462;7.338;2022-08-19T07:58:36;20.23;;;14.20;;
6878;SDS011;3478;51.462;7.338;2022-08-19T08:03:40;21.30;;;13.20;;
6878;SDS011;3478;51.462;7.338;2022-08-19T08:09:01;13.60;;;12.27;;
6878;SDS011;3478;51.462;7.338;2022-08-19T08:14:20;18.43;;;12.80;;
6878;SDS011;3478;51.462;7.338;2022-08-19T08:19:26;12.10;;;10.87;;
6878;SDS011;3478;51.462;7.338;2022-08-19T08:24:29;13.43;;;12.20;;
6878;SDS011;3478;51.462;7.338;2022-08-19T08:29:33;15.13;;;13.50;;
6878;SDS011;3478;51.462;7.338;2022-08-19T08:34:35;26.13;;;13.97;;
6878;SDS011;3478;51.462;7.338;2022-08-19T08:39:38;19.77;;;14.13;;
6878;SDS011;3478;51.462;7.338;2022-08-19T08:44:42;16.90;;;14.87;;
6878;SDS011;3478;51.462;7.338;2022-08-19T08:49:51;17.33;;;15.30;;
6878;SDS011;3478;51.462;7.338;2022-08-19T08:54:57;21.03;;;15.87;;
6878;SDS011;3478;51.462;7.338;2022-08-19T09:00:05;23.60;;;18.40;;
6878;SDS011;3478;51.462;7.338;2022-08-19T09:05:10;23.20;;;18.87;;
6878;SDS011;3478;51.462;7.338;2022-08-19T09:10:15;21.47;;;19.07;;
6878;SDS011;3478;51.462;7.338;2022-08-19T09:15:25;18.60;;;15.27;;
6878;SDS011;3478;51.462;7.338;2022-08-19T09:20:33;25.73;;;19.27;;
6878;SDS011;3478;51.462;7.338;2022-08-19T09:25:35;23.30;;;19.50;;
6878;SDS011;3478;51.462;7.338;2022-08-19T09:30:40;17.53;;;15.73;;
6878;SDS011;3478;51.462;7.338;2022-08-19T09:35:42;21.50;;;16.93;;
6878;SDS011;3478;51.462;7.338;2022-08-19T09:40:44;27.87;;;24.93;;
6878;SDS011;3478;51.462;7.338;2022-08-19T09:45:47;30.07;;;26.90;;
6878;SDS011;3478;51.462;7.338;2022-08-19T09:50:49;42.80;;;33.97;;
6878;SDS011;3478;51.462;7.338;2022-08-19T09:55:51;34.30;;;30.03;;
6878;SDS011;3478;51.462;7.338;2022-08-19T10:00:57;30.97;;;27.00;;
6878;SDS011;3478;51.462;7.338;2022-08-19T10:06:00;29.27;;;21.20;;
6878;SDS011;3478;51.462;7.338;2022-08-19T10:11:04;19.80;;;17.90;;
6878;SDS011;3478;51.462;7.338;2022-08-19T10:16:09;35.67;;;28.37;;
6878;SDS011;3478;51.462;7.338;2022-08-19T10:21:13;31.13;;;27.73;;
6878;SDS011;3478;51.462;7.338;2022-08-19T10:26:18;25.53;;;22.63;;
6878;SDS011;3478;51.462;7.338;2022-08-19T10:31:23;24.27;;;21.80;;
6878;SDS011;3478;51.462;7.338;2022-08-19T10:36:27;22.07;;;19.87;;
6878;SDS011;3478;51.462;7.338;2022-08-19T10:41:31;13.60;;;12.40;;
6878;SDS011;3478;51.462;7.338;2022-08-19T10:46:37;18.57;;;16.77;;
6878;SDS011;3478;51.462;7.338;2022-08-19T10:51:41;18.17;;;16.30;;
6878;SDS011;3478;51.462;7.338;2022-08-19T10:57:01;16.00;;;14.13;;
6878;SDS011;3478;51.462;7.338;2022-08-19T11:02:05;14.70;;;13.30;;
6878;SDS011;3478;51.462;7.338;2022-08-19T11:07:09;14.10;;;12.63;;
6878;SDS011;3478;51.462;7.338;2022-08-19T11:12:12;14.30;;;12.80;;
6878;SDS011;3478;51.462;7.338;2022-08-19T11:17:16;12.50;;;11.50;;
6878;SDS011;3478;51.462;7.338;2022-08-19T11:22:18;14.10;;;12.80;;
6878;SDS011;3478;51.462;7.338;2022-08-19T11:27:20;14.43;;;12.80;;
6878;SDS011;3478;51.462;7.338;2022-08-19T11:32:23;13.73;;;12.43;;
6878;SDS011;3478;51.462;7.338;2022-08-19T11:37:25;19.00;;;17.10;;
6878;SDS011;3478;51.462;7.338;2022-08-19T11:42:28;20.13;;;18.27;;
6878;SDS011;3478;51.462;7.338;2022-08-19T11:47:48;20.03;;;18.13;;
6878;SDS011;3478;51.462;7.338;2022-08-19T11:52:53;19.53;;;17.60;;
6878;SDS011;3478;51.462;7.338;2022-08-19T11:57:55;17.70;;;16.10;;
6878;SDS011;3478;51.462;7.338;2022-08-19T12:02:59;20.50;;;18.10;;
6878;SDS011;3478;51.462;7.338;2022-08-19T12:08:01;15.37;;;14.07;;
6878;SDS011;3478;51.462;7.338;2022-08-19T12:13:03;18.03;;;16.30;;
6878;SDS011;3478;51.462;7.338;2022-08-19T12:18:08;16.77;;;15.00;;
6878;SDS011;3478;51.462;7.338;2022-08-19T12:23:10;17.07;;;15.47;;
6878;SDS011;3478;51.462;7.338;2022-08-19T12:28:12;13.63;;;12.57;;
6878;SDS011;3478;51.462;7.338;2022-08-19T12:33:16;15.93;;;12.43;;
6878;SDS011;3478;51.462;7.338;2022-08-19T12:38:19;12.13;;;11.10;;
6878;SDS011;3478;51.462;7.338;2022-08-19T12:43:23;11.53;;;10.53;;
6878;SDS011;3478;51.462;7.338;2022-08-19T12:48:26;12.37;;;11.27;;
6878;SDS011;3478;51.462;7.338;2022-08-19T12:53:29;12.03;;;11.07;;
6878;SDS011;3478;51.462;7.338;2022-08-19T12:58:31;9.43;;;8.63;;
6878;SDS011;3478;51.462;7.338;2022-08-19T13:03:36;11.47;;;10.37;;
6878;SDS011;3478;51.462;7.338;2022-08-19T13:08:38;10.03;;;9.27;;
6878;SDS011;3478;51.462;7.338;2022-08-19T13:13:40;7.70;;;7.20;;
6878;SDS011;3478;51.462;7.338;2022-08-19T13:18:46;7.63;;;6.57;;
6878;SDS011;3478;51.462;7.338;2022-08-19T13:23:48;6.77;;;6.30;;
6878;SDS011;3478;51.462;7.338;2022-08-19T13:28:50;5.70;;;5.40;;
6878;SDS011;3478;51.462;7.338;2022-08-19T13:34:11;6.77;;;6.37;;
6878;SDS011;3478;51.462;7.338;2022-08-19T13:39:14;5.50;;;4.70;;
6878;SDS011;3478;51.462;7.338;2022-08-19T13:44:16;6.23;;;5.83;;
6878;SDS011;3478;51.462;7.338;2022-08-19T13:49:20;5.57;;;5.27;;
6878;SDS011;3478;51.462;7.338;2022-08-19T13:54:23;6.03;;;5.73;;
6878;SDS011;3478;51.462;7.338;2022-08-19T13:59:25;5.00;;;4.70;;
6878;SDS011;3478;51.462;7.338;2022-08-19T14:04:28;6.50;;;6.20;;
6878;SDS011;3478;51.462;7.338;2022-08-19T14:09:30;5.37;;;4.93;;
6878;SDS011;3478;51.462;7.338;2022-08-19T14:14:32;5.80;;;5.43;;
6878;SDS011;3478;51.462;7.338;2022-08-19T14:19:39;5.50;;;5.20;;
6878;SDS011;3478;51.462;7.338;2022-08-19T14:24:41;5.90;;;5.60;;
6878;SDS011;3478;51.462;7.338;2022-08-19T14:29:43;5.37;;;5.03;;
6878;SDS011;3478;51.462;7.338;2022-08-19T14:34:47;6.67;;;6.17;;
6878;SDS011;3478;51.462;7.338;2022-08-19T14:39:49;6.37;;;5.77;;
6878;SDS011;3478;51.462;7.338;2022-08-19T14:44:52;7.73;;;7.03;;
6878;SDS011;3478;51.462;7.338;2022-08-19T14:49:55;7.40;;;6.13;;
6878;SDS011;3478;51.462;7.338;2022-08-19T14:54:57;5.67;;;5.27;;
6878;SDS011;3478;51.462;7.338;2022-08-19T14:59:59;6.80;;;6.13;;
6878;SDS011;3478;51.462;7.338;2022-08-19T15:05:02;6.80;;;5.13;;
6878;SDS011;3478;51.462;7.338;2022-08-19T15:10:05;5.10;;;4.67;;
6878;SDS011;3478;51.462;7.338;2022-08-19T15:15:10;4.33;;;3.97;;
6878;SDS011;3478;51.462;7.338;2022-08-19T15:20:16;4.60;;;4.30;;
6878;SDS011;3478;51.462;7.338;2022-08-19T15:25:20;4.33;;;4.03;;
6878;SDS011;3478;51.462;7.338;2022-08-19T15:30:23;5.33;;;4.93;;
6878;SDS011;3478;51.462;7.338;2022-08-19T15:35:29;5.27;;;4.77;;
6878;SDS011;3478;51.462;7.338;2022-08-19T15:40:31;4.93;;;4.53;;
6878;SDS011;3478;51.462;7.338;2022-08-19T15:45:33;5.57;;;4.93;;
6878;SDS011;3478;51.462;7.338;2022-08-19T15:50:37;5.80;;;5.40;;
6878;SDS011;3478;51.462;7.338;2022-08-19T15:55:41;12.77;;;5.53;;
6878;SDS011;3478;51.462;7.338;2022-08-19T16:00:44;5.73;;;5.43;;
6878;SDS011;3478;51.462;7.338;2022-08-19T16:06:05;6.87;;;6.20;;
6878;SDS011;3478;51.462;7.338;2022-08-19T16:11:25;6.83;;;6.27;;
6878;SDS011;3478;51.462;7.338;2022-08-19T16:16:31;6.60;;;6.00;;
6878;SDS011;3478;51.462;7.338;2022-08-19T16:21:35;6.90;;;6.50;;
6878;SDS011;3478;51.462;7.338;2022-08-19T16:26:39;6.63;;;6.20;;
6878;SDS011;3478;51.462;7.338;2022-08-19T16:31:43;8.83;;;7.37;;
6878;SDS011;3478;51.462;7.338;2022-08-19T16:36:47;8.13;;;7.50;;
6878;SDS011;3478;51.462;7.338;2022-08-19T16:41:50;10.87;;;7.67;;
6878;SDS011;3478;51.462;7.338;2022-08-19T16:46:52;7.00;;;6.40;;
6878;SDS011;3478;51.462;7.338;2022-08-19T16:51:55;11.03;;;6.73;;
6878;SDS011;3478;51.462;7.338;2022-08-19T16:56:57;7.80;;;5.73;;
6878;SDS011;3478;51.462;7.338;2022-08-19T17:01:59;5.87;;;5.30;;
6878;SDS011;3478;51.462;7.338;2022-08-19T17:07:03;5.67;;;5.27;;
6878;SDS011;3478;51.462;7.338;2022-08-19T17:12:05;5.13;;;4.83;;
6878;SDS011;3478;51.462;7.338;2022-08-19T17:17:07;4.67;;;3.90;;
6878;SDS011;3478;51.462;7.338;2022-08-19T17:22:13;4.90;;;4.50;;
6878;SDS011;3478;51.462;7.338;2022-08-19T17:27:14;5.17;;;4.87;;
6878;SDS011;3478;51.462;7.338;2022-08-19T17:32:18;6.47;;;5.97;;
6878;SDS011;3478;51.462;7.338;2022-08-19T17:37:22;9.13;;;7.70;;
6878;SDS011;3478;51.462;7.338;2022-08-19T17:42:24;9.00;;;6.67;;
6878;SDS011;3478;51.462;7.338;2022-08-19T17:47:26;7.40;;;6.70;;
6878;SDS011;3478;51.462;7.338;2022-08-19T17:52:29;7.33;;;6.53;;
6878;SDS011;3478;51.462;7.338;2022-08-19T17:57:31;6.17;;;5.50;;
6878;SDS011;3478;51.462;7.338;2022-08-19T18:02:33;6.53;;;6.10;;
6878;SDS011;3478;51.462;7.338;2022-08-19T18:07:44;10.63;;;8.17;;
6878;SDS011;3478;51.462;7.338;2022-08-19T18:12:48;8.80;;;6.60;;
6878;SDS011;3478;51.462;7.338;2022-08-19T18:17:50;6.80;;;6.23;;
6878;SDS011;3478;51.462;7.338;2022-08-19T18:22:53;8.77;;;7.90;;
6878;SDS011;3478;51.462;7.338;2022-08-19T18:27:56;8.30;;;7.60;;
6878;SDS011;3478;51.462;7.338;2022-08-19T18:33:00;9.43;;;8.63;;
6878;SDS011;3478;51.462;7.338;2022-08-19T18:38:10;10.37;;;8.97;;
6878;SDS011;3478;51.462;7.338;2022-08-19T18:43:30;9.93;;;8.97;;
6878;SDS011;3478;51.462;7.338;2022-08-19T18:48:55;10.83;;;9.73;;
6878;SDS011;3478;51.462;7.338;2022-08-19T18:54:08;9.20;;;8.27;;
6878;SDS011;3478;51.462;7.338;2022-08-19T18:59:11;9.00;;;8.10;;
6878;SDS011;3478;51.462;7.338;2022-08-19T19:04:14;7.30;;;6.80;;
6878;SDS011;3478;51.462;7.338;2022-08-19T19:09:21;8.03;;;7.40;;
6878;SDS011;3478;51.462;7.338;2022-08-19T19:14:26;8.70;;;7.77;;
6878;SDS011;3478;51.462;7.338;2022-08-19T19:19:32;9.53;;;8.63;;
6878;SDS011;3478;51.462;7.338;2022-08-19T19:24:36;8.80;;;8.00;;
6878;SDS011;3478;51.462;7.338;2022-08-19T19:29:38;8.70;;;7.90;;
6878;SDS011;3478;51.462;7.338;2022-08-19T19:34:41;10.17;;;8.40;;
6878;SDS011;3478;51.462;7.338;2022-08-19T19:39:44;9.70;;;8.70;;
6878;SDS011;3478;51.462;7.338;2022-08-19T19:44:48;11.57;;;10.37;;
6878;SDS011;3478;51.462;7.338;2022-08-19T19:49:50;12.03;;;9.57;;
6878;SDS011;3478;51.462;7.338;2022-08-19T19:54:55;16.27;;;11.63;;
6878;SDS011;3478;51.462;7.338;2022-08-19T19:59:57;11.73;;;10.20;;
6878;SDS011;3478;51.462;7.338;2022-08-19T20:04:59;11.70;;;10.43;;
6878;SDS011;3478;51.462;7.338;2022-08-19T20:10:02;13.93;;;11.60;;
6878;SDS011;3478;51.462;7.338;2022-08-19T20:15:05;12.60;;;10.07;;
6878;SDS011;3478;51.462;7.338;2022-08-19T20:20:08;8.70;;;7.90;;
6878;SDS011;3478;51.462;7.338;2022-08-19T20:25:12;11.63;;;9.90;;
6878;SDS011;3478;51.462;7.338;2022-08-19T20:30:16;10.83;;;9.03;;
6878;SDS011;3478;51.462;7.338;2022-08-19T20:35:20;10.70;;;8.43;;
6878;SDS011;3478;51.462;7.338;2022-08-19T20:40:24;10.07;;;8.80;;
6878;SDS011;3478;51.462;7.338;2022-08-19T20:45:26;11.63;;;9.03;;
6878;SDS011;3478;51.462;7.338;2022-08-19T20:50:28;10.73;;;9.00;;
6878;SDS011;3478;51.462;7.338;2022-08-19T20:55:32;9.07;;;8.17;;
6878;SDS011;3478;51.462;7.338;2022-08-19T21:00:34;9.73;;;8.40;;
6878;SDS011;3478;51.462;7.338;2022-08-19T21:05:36;8.97;;;8.27;;
6878;SDS011;3478;51.462;7.338;2022-08-19T21:10:39;9.20;;;8.17;;
6878;SDS011;3478;51.462;7.338;2022-08-19T21:15:43;9.03;;;7.97;;
6878;SDS011;3478;51.462;7.338;2022-08-19T21:20:46;7.50;;;6.90;;
6878;SDS011;3478;51.462;7.338;2022-08-19T21:25:51;9.30;;;7.27;;
6878;SDS011;3478;51.462;7.338;2022-08-19T21:30:53;7.47;;;6.97;;
6878;SDS011;3478;51.462;7.338;2022-08-19T21:35:56;8.80;;;7.60;;
6878;SDS011;3478;51.462;7.338;2022-08-19T21:41:01;7.53;;;6.67;;
6878;SDS011;3478;51.462;7.338;2022-08-19T21:46:04;9.00;;;6.17;;
6878;SDS011;3478;51.462;7.338;2022-08-19T21:51:06;6.60;;;6.10;;
6878;SDS011;3478;51.462;7.338;2022-08-19T21:56:10;9.57;;;7.30;;
6878;SDS011;3478;51.462;7.338;2022-08-19T22:01:12;7.93;;;7.33;;
6878;SDS011;3478;51.462;7.338;2022-08-19T22:06:14;6.57;;;6.00;;
6878;SDS011;3478;51.462;7.338;2022-08-19T22:11:18;7.10;;;6.40;;
6878;SDS011;3478;51.462;7.338;2022-08-19T22:16:20;7.57;;;6.30;;
6878;SDS011;3478;51.462;7.338;2022-08-19T22:21:22;7.60;;;6.90;;
6878;SDS011;3478;51.462;7.338;2022-08-19T22:26:26;7.07;;;6.47;;
6878;SDS011;3478;51.462;7.338;2022-08-19T22:31:28;6.10;;;5.60;;
6878;SDS011;3478;51.462;7.338;2022-08-19T22:36:30;7.03;;;6.43;;
6878;SDS011;3478;51.462;7.338;2022-08-19T22:41:34;8.50;;;6.90;;
6878;SDS011;3478;51.462;7.338;2022-08-19T22:46:36;6.67;;;6.07;;
6878;SDS011;3478;51.462;7.338;2022-08-19T22:51:38;6.23;;;5.70;;
6878;SDS011;3478;51.462;7.338;2022-08-19T22:56:59;10.10;;;7.27;;
6878;SDS011;3478;51.462;7.338;2022-08-19T23:02:00;6.03;;;5.43;;
6878;SDS011;3478;51.462;7.338;2022-08-19T23:07:03;6.87;;;6.27;;
6878;SDS011;3478;51.462;7.338;2022-08-19T23:12:09;7.83;;;7.03;;
6878;SDS011;3478;51.462;7.338;2022-08-19T23:17:12;6.80;;;6.20;;
6878;SDS011;3478;51.462;7.338;2022-08-19T23:22:15;12.03;;;7.23;;
6878;SDS011;3478;51.462;7.338;2022-08-19T23:27:18;10.63;;;8.60;;
6878;SDS011;3478;51.462;7.338;2022-08-19T23:32:37;11.67;;;8.67;;
6878;SDS011;3478;51.462;7.338;2022-08-19T23:37:40;16.77;;;11.27;;
6878;SDS011;3478;51.462;7.338;2022-08-19T23:42:43;15.93;;;11.70;;
6878;SDS011;3478;51.462;7.338;2022-08-19T23:47:45;24.10;;;13.27;;
6878;SDS011;3478;51.462;7.338;2022-08-19T23:52:48;19.90;;;14.90;;
6878;SDS011;3478;51.462;7.338;2022-08-19T23:57:53;20.00;;;13.03;;
